sensor_id;sensor_type;location;lat;lon;timestamp;P1;durP1;ratioP1;P2;durP2;ratioP2
13356;SDS011;6747;56.456;-3.120;2024-03-17T00:02:03;12.13;;;6.45;;
13356;SDS011;6747;56.456;-3.120;2024-03-17T00:10:26;9.82;;;6.65;;
13356;SDS011;6747;56.456;-3.120;2024-03-17T00:13:15;13.57;;;6.80;;
13356;SDS011;6747;56.456;-3.120;2024-03-17T00:16:09;12.00;;;7.07;;
13356;SDS011;6747;56.456;-3.120;2024-03-17T00:18:54;12.27;;;6.47;;
13356;SDS011;6747;56.456;-3.120;2024-03-17T00:21:50;8.95;;;6.15;;
13356;SDS011;6747;56.456;-3.120;2024-03-17T00:24:35;9.95;;;6.80;;
13356;SDS011;6747;56.456;-3.120;2024-03-17T00:38:48;13.48;;;7.00;;
13356;SDS011;6747;56.456;-3.120;2024-03-17T00:41:50;12.70;;;6.60;;
13356;SDS011;6747;56.456;-3.120;2024-03-17T00:44:35;11.65;;;6.18;;
13356;SDS011;6747;56.456;-3.120;2024-03-17T00:47:31;13.55;;;6.38;;
13356;SDS011;6747;56.456;-3.120;2024-03-17T00:50:07;15.35;;;6.35;;
13356;SDS011;6747;56.456;-3.120;2024-03-17T00:52:55;11.15;;;7.10;;
13356;SDS011;6747;56.456;-3.120;2024-03-17T00:55:42;12.70;;;7.35;;
13356;SDS011;6747;56.456;-3.120;2024-03-17T00:58:37;16.02;;;7.38;;
13356;SDS011;6747;56.456;-3.120;2024-03-17T01:01:54;11.38;;;6.68;;
13356;SDS011;6747;56.456;-3.120;2024-03-17T01:04:43;12.93;;;7.07;;
13356;SDS011;6747;56.456;-3.120;2024-03-17T01:07:47;15.30;;;7.07;;
13356;SDS011;6747;56.456;-3.120;2024-03-17T01:13:52;15.00;;;7.43;;
13356;SDS011;6747;56.456;-3.120;2024-03-17T01:16:47;12.85;;;7.63;;
13356;SDS011;6747;56.456;-3.120;2024-03-17T01:19:39;11.77;;;7.40;;
13356;SDS011;6747;56.456;-3.120;2024-03-17T01:22:35;10.65;;;7.45;;
13356;SDS011;6747;56.456;-3.120;2024-03-17T01:28:10;14.30;;;7.32;;
13356;SDS011;6747;56.456;-3.120;2024-03-17T01:34:14;11.68;;;8.07;;
13356;SDS011;6747;56.456;-3.120;2024-03-17T01:43:22;13.07;;;8.13;;
13356;SDS011;6747;56.456;-3.120;2024-03-17T01:46:31;11.98;;;7.22;;
13356;SDS011;6747;56.456;-3.120;2024-03-17T02:04:30;17.67;;;8.27;;
13356;SDS011;6747;56.456;-3.120;2024-03-17T02:07:23;12.80;;;7.82;;
13356;SDS011;6747;56.456;-3.120;2024-03-17T02:10:05;14.20;;;8.43;;
13356;SDS011;6747;56.456;-3.120;2024-03-17T02:12:49;14.73;;;8.52;;
13356;SDS011;6747;56.456;-3.120;2024-03-17T02:15:20;16.85;;;8.73;;
13356;SDS011;6747;56.456;-3.120;2024-03-17T02:18:17;14.50;;;9.27;;
13356;SDS011;6747;56.456;-3.120;2024-03-17T02:24:22;14.40;;;9.15;;
13356;SDS011;6747;56.456;-3.120;2024-03-17T02:27:08;14.23;;;9.23;;
13356;SDS011;6747;56.456;-3.120;2024-03-17T02:29:53;17.17;;;9.80;;
13356;SDS011;6747;56.456;-3.120;2024-03-17T02:32:38;16.67;;;9.00;;
13356;SDS011;6747;56.456;-3.120;2024-03-17T02:35:21;17.42;;;9.70;;
13356;SDS011;6747;56.456;-3.120;2024-03-17T02:38:15;19.30;;;9.65;;
13356;SDS011;6747;56.456;-3.120;2024-03-17T02:59:41;18.10;;;9.07;;
13356;SDS011;6747;56.456;-3.120;2024-03-17T03:02:36;14.15;;;8.30;;
13356;SDS011;6747;56.456;-3.120;2024-03-17T03:05:37;20.55;;;8.95;;
13356;SDS011;6747;56.456;-3.120;2024-03-17T03:32:54;15.07;;;7.82;;
13356;SDS011;6747;56.456;-3.120;2024-03-17T03:35:41;13.90;;;7.90;;
13356;SDS011;6747;56.456;-3.120;2024-03-17T03:38:34;15.07;;;8.27;;
13356;SDS011;6747;56.456;-3.120;2024-03-17T03:44:34;15.13;;;8.35;;
13356;SDS011;6747;56.456;-3.120;2024-03-17T03:47:16;15.43;;;8.18;;
13356;SDS011;6747;56.456;-3.120;2024-03-17T03:50:19;16.25;;;9.00;;
13356;SDS011;6747;56.456;-3.120;2024-03-17T03:56:30;16.92;;;7.90;;
13356;SDS011;6747;56.456;-3.120;2024-03-17T03:59:04;14.32;;;8.27;;
13356;SDS011;6747;56.456;-3.120;2024-03-17T04:04:49;15.23;;;8.23;;
13356;SDS011;6747;56.456;-3.120;2024-03-17T04:10:36;18.05;;;8.38;;
13356;SDS011;6747;56.456;-3.120;2024-03-17T04:13:40;17.40;;;8.38;;
13356;SDS011;6747;56.456;-3.120;2024-03-17T04:16:27;16.52;;;7.93;;
13356;SDS011;6747;56.456;-3.120;2024-03-17T04:19:13;16.25;;;8.43;;
13356;SDS011;6747;56.456;-3.120;2024-03-17T04:21:56;12.10;;;7.50;;
13356;SDS011;6747;56.456;-3.120;2024-03-17T04:24:48;15.73;;;8.40;;
13356;SDS011;6747;56.456;-3.120;2024-03-17T04:27:47;12.88;;;7.78;;
13356;SDS011;6747;56.456;-3.120;2024-03-17T04:30:50;10.60;;;7.05;;
13356;SDS011;6747;56.456;-3.120;2024-03-17T04:33:34;14.38;;;7.38;;
13356;SDS011;6747;56.456;-3.120;2024-03-17T04:36:20;8.98;;;7.28;;
13356;SDS011;6747;56.456;-3.120;2024-03-17T04:39:20;11.02;;;7.35;;
13356;SDS011;6747;56.456;-3.120;2024-03-17T04:49:02;15.90;;;8.20;;
13356;SDS011;6747;56.456;-3.120;2024-03-17T04:51:50;8.85;;;7.13;;
13356;SDS011;6747;56.456;-3.120;2024-03-17T04:54:33;9.80;;;7.20;;
13356;SDS011;6747;56.456;-3.120;2024-03-17T04:57:22;7.63;;;6.85;;
13356;SDS011;6747;56.456;-3.120;2024-03-17T05:00:26;11.48;;;7.00;;
13356;SDS011;6747;56.456;-3.120;2024-03-17T05:18:05;10.43;;;6.65;;
13356;SDS011;6747;56.456;-3.120;2024-03-17T05:20:56;8.20;;;6.28;;
13356;SDS011;6747;56.456;-3.120;2024-03-17T05:24:01;8.10;;;5.82;;
13356;SDS011;6747;56.456;-3.120;2024-03-17T05:26:52;10.50;;;6.18;;
13356;SDS011;6747;56.456;-3.120;2024-03-17T05:29:50;7.07;;;5.28;;
13356;SDS011;6747;56.456;-3.120;2024-03-17T05:32:36;9.50;;;6.13;;
13356;SDS011;6747;56.456;-3.120;2024-03-17T05:51:44;10.02;;;6.88;;
13356;SDS011;6747;56.456;-3.120;2024-03-17T05:54:33;10.73;;;6.68;;
13356;SDS011;6747;56.456;-3.120;2024-03-17T05:57:22;9.02;;;6.47;;
13356;SDS011;6747;56.456;-3.120;2024-03-17T06:00:07;9.43;;;7.05;;
13356;SDS011;6747;56.456;-3.120;2024-03-17T06:03:02;11.90;;;6.78;;
13356;SDS011;6747;56.456;-3.120;2024-03-17T06:05:52;11.65;;;6.63;;
13356;SDS011;6747;56.456;-3.120;2024-03-17T06:30:29;11.80;;;7.45;;
13356;SDS011;6747;56.456;-3.120;2024-03-17T06:33:15;11.77;;;7.28;;
13356;SDS011;6747;56.456;-3.120;2024-03-17T06:36:13;8.13;;;6.50;;
13356;SDS011;6747;56.456;-3.120;2024-03-17T06:39:21;10.10;;;6.95;;
13356;SDS011;6747;56.456;-3.120;2024-03-17T06:42:04;10.73;;;7.25;;
13356;SDS011;6747;56.456;-3.120;2024-03-17T06:44:54;10.48;;;7.60;;
13356;SDS011;6747;56.456;-3.120;2024-03-17T07:06:04;8.70;;;6.50;;
13356;SDS011;6747;56.456;-3.120;2024-03-17T07:08:58;9.68;;;6.35;;
13356;SDS011;6747;56.456;-3.120;2024-03-17T07:11:34;7.28;;;6.32;;
13356;SDS011;6747;56.456;-3.120;2024-03-17T07:14:20;8.43;;;6.60;;
13356;SDS011;6747;56.456;-3.120;2024-03-17T07:17:02;7.13;;;6.40;;
13356;SDS011;6747;56.456;-3.120;2024-03-17T07:19:42;8.80;;;6.70;;
13356;SDS011;6747;56.456;-3.120;2024-03-17T07:25:31;7.88;;;6.05;;
13356;SDS011;6747;56.456;-3.120;2024-03-17T07:28:35;9.95;;;6.07;;
13356;SDS011;6747;56.456;-3.120;2024-03-17T07:31:20;11.02;;;6.68;;
13356;SDS011;6747;56.456;-3.120;2024-03-17T07:34:20;9.32;;;6.70;;
13356;SDS011;6747;56.456;-3.120;2024-03-17T07:37:02;10.52;;;6.50;;
13356;SDS011;6747;56.456;-3.120;2024-03-17T07:39:35;9.27;;;6.22;;
13356;SDS011;6747;56.456;-3.120;2024-03-17T07:42:18;11.68;;;7.03;;
13356;SDS011;6747;56.456;-3.120;2024-03-17T07:44:51;8.27;;;6.40;;
13356;SDS011;6747;56.456;-3.120;2024-03-17T07:47:38;8.15;;;6.30;;
13356;SDS011;6747;56.456;-3.120;2024-03-17T07:50:32;10.35;;;7.03;;
13356;SDS011;6747;56.456;-3.120;2024-03-17T07:53:10;8.18;;;6.13;;
13356;SDS011;6747;56.456;-3.120;2024-03-17T07:56:05;9.00;;;6.47;;
13356;SDS011;6747;56.456;-3.120;2024-03-17T07:59:22;7.43;;;6.57;;
13356;SDS011;6747;56.456;-3.120;2024-03-17T08:02:01;9.05;;;6.18;;
13356;SDS011;6747;56.456;-3.120;2024-03-17T08:05:11;8.68;;;6.38;;
13356;SDS011;6747;56.456;-3.120;2024-03-17T08:08:18;8.68;;;5.65;;
13356;SDS011;6747;56.456;-3.120;2024-03-17T08:11:05;7.47;;;5.97;;
13356;SDS011;6747;56.456;-3.120;2024-03-17T08:19:50;9.32;;;6.38;;
13356;SDS011;6747;56.456;-3.120;2024-03-17T08:22:30;7.50;;;5.60;;
13356;SDS011;6747;56.456;-3.120;2024-03-17T08:25:22;8.57;;;4.90;;
13356;SDS011;6747;56.456;-3.120;2024-03-17T08:27:54;7.38;;;5.35;;
13356;SDS011;6747;56.456;-3.120;2024-03-17T08:30:35;6.45;;;5.70;;
13356;SDS011;6747;56.456;-3.120;2024-03-17T08:33:05;8.27;;;6.15;;
13356;SDS011;6747;56.456;-3.120;2024-03-17T08:44:32;7.00;;;5.10;;
13356;SDS011;6747;56.456;-3.120;2024-03-17T08:47:22;7.00;;;5.10;;
13356;SDS011;6747;56.456;-3.120;2024-03-17T08:49:54;9.15;;;5.60;;
13356;SDS011;6747;56.456;-3.120;2024-03-17T08:52:23;6.38;;;5.10;;
13356;SDS011;6747;56.456;-3.120;2024-03-17T08:54:52;6.72;;;5.00;;
13356;SDS011;6747;56.456;-3.120;2024-03-17T08:57:21;5.32;;;4.82;;
13356;SDS011;6747;56.456;-3.120;2024-03-17T08:59:56;7.05;;;5.32;;
13356;SDS011;6747;56.456;-3.120;2024-03-17T09:02:32;6.85;;;5.10;;
13356;SDS011;6747;56.456;-3.120;2024-03-17T09:05:04;6.07;;;5.18;;
13356;SDS011;6747;56.456;-3.120;2024-03-17T09:07:34;6.93;;;4.82;;
13356;SDS011;6747;56.456;-3.120;2024-03-17T09:10:03;5.68;;;4.95;;
13356;SDS011;6747;56.456;-3.120;2024-03-17T09:12:32;5.30;;;4.70;;
13356;SDS011;6747;56.456;-3.120;2024-03-17T09:15:03;6.78;;;4.43;;
13356;SDS011;6747;56.456;-3.120;2024-03-17T09:17:34;5.78;;;4.10;;
13356;SDS011;6747;56.456;-3.120;2024-03-17T09:20:02;5.18;;;3.80;;
13356;SDS011;6747;56.456;-3.120;2024-03-17T09:22:37;5.78;;;4.43;;
13356;SDS011;6747;56.456;-3.120;2024-03-17T09:25:07;4.82;;;4.32;;
13356;SDS011;6747;56.456;-3.120;2024-03-17T09:27:36;4.20;;;3.50;;
13356;SDS011;6747;56.456;-3.120;2024-03-17T09:30:12;4.65;;;3.80;;
13356;SDS011;6747;56.456;-3.120;2024-03-17T09:32:42;3.15;;;2.90;;
13356;SDS011;6747;56.456;-3.120;2024-03-17T09:35:16;5.97;;;3.58;;
13356;SDS011;6747;56.456;-3.120;2024-03-17T09:37:46;3.75;;;3.20;;
13356;SDS011;6747;56.456;-3.120;2024-03-17T09:40:15;4.05;;;3.08;;
13356;SDS011;6747;56.456;-3.120;2024-03-17T09:42:44;3.40;;;3.17;;
13356;SDS011;6747;56.456;-3.120;2024-03-17T09:45:14;3.60;;;3.30;;
13356;SDS011;6747;56.456;-3.120;2024-03-17T09:47:42;3.25;;;2.83;;
13356;SDS011;6747;56.456;-3.120;2024-03-17T09:50:12;3.22;;;2.92;;
13356;SDS011;6747;56.456;-3.120;2024-03-17T09:52:44;4.22;;;3.22;;
13356;SDS011;6747;56.456;-3.120;2024-03-17T09:55:14;5.47;;;4.82;;
13356;SDS011;6747;56.456;-3.120;2024-03-17T09:57:43;10.70;;;5.65;;
13356;SDS011;6747;56.456;-3.120;2024-03-17T10:00:14;7.90;;;5.57;;
13356;SDS011;6747;56.456;-3.120;2024-03-17T10:02:42;7.45;;;5.75;;
13356;SDS011;6747;56.456;-3.120;2024-03-17T10:07:54;11.30;;;5.72;;
13356;SDS011;6747;56.456;-3.120;2024-03-17T10:10:29;8.70;;;6.18;;
13356;SDS011;6747;56.456;-3.120;2024-03-17T10:12:57;10.52;;;5.20;;
13356;SDS011;6747;56.456;-3.120;2024-03-17T10:15:27;10.00;;;5.72;;
13356;SDS011;6747;56.456;-3.120;2024-03-17T10:17:55;10.63;;;5.95;;
13356;SDS011;6747;56.456;-3.120;2024-03-17T10:20:24;7.50;;;5.57;;
13356;SDS011;6747;56.456;-3.120;2024-03-17T10:23:00;8.05;;;5.22;;
13356;SDS011;6747;56.456;-3.120;2024-03-17T10:25:30;6.95;;;5.00;;
13356;SDS011;6747;56.456;-3.120;2024-03-17T10:27:58;7.07;;;4.53;;
13356;SDS011;6747;56.456;-3.120;2024-03-17T10:30:29;4.97;;;4.30;;
13356;SDS011;6747;56.456;-3.120;2024-03-17T10:32:59;7.00;;;4.70;;
13356;SDS011;6747;56.456;-3.120;2024-03-17T10:35:30;7.57;;;5.05;;
13356;SDS011;6747;56.456;-3.120;2024-03-17T10:37:59;7.57;;;5.43;;
13356;SDS011;6747;56.456;-3.120;2024-03-17T10:40:30;5.63;;;4.55;;
13356;SDS011;6747;56.456;-3.120;2024-03-17T10:43:01;7.63;;;4.30;;
13356;SDS011;6747;56.456;-3.120;2024-03-17T10:45:33;8.43;;;4.47;;
13356;SDS011;6747;56.456;-3.120;2024-03-17T10:48:05;11.07;;;4.40;;
13356;SDS011;6747;56.456;-3.120;2024-03-17T10:50:35;4.75;;;3.67;;
13356;SDS011;6747;56.456;-3.120;2024-03-17T10:53:05;4.28;;;3.47;;
13356;SDS011;6747;56.456;-3.120;2024-03-17T10:55:37;4.10;;;3.70;;
13356;SDS011;6747;56.456;-3.120;2024-03-17T10:58:07;4.47;;;3.20;;
13356;SDS011;6747;56.456;-3.120;2024-03-17T11:00:46;3.42;;;3.05;;
13356;SDS011;6747;56.456;-3.120;2024-03-17T11:03:13;3.92;;;3.55;;
13356;SDS011;6747;56.456;-3.120;2024-03-17T11:05:43;3.65;;;3.22;;
13356;SDS011;6747;56.456;-3.120;2024-03-17T11:08:14;4.50;;;3.15;;
13356;SDS011;6747;56.456;-3.120;2024-03-17T11:10:48;3.47;;;3.17;;
13356;SDS011;6747;56.456;-3.120;2024-03-17T11:13:24;4.45;;;3.30;;
13356;SDS011;6747;56.456;-3.120;2024-03-17T11:16:02;5.30;;;3.40;;
13356;SDS011;6747;56.456;-3.120;2024-03-17T11:21:20;4.50;;;3.05;;
13356;SDS011;6747;56.456;-3.120;2024-03-17T11:23:56;3.42;;;3.13;;
13356;SDS011;6747;56.456;-3.120;2024-03-17T11:26:28;3.00;;;2.72;;
13356;SDS011;6747;56.456;-3.120;2024-03-17T11:28:56;3.50;;;3.20;;
13356;SDS011;6747;56.456;-3.120;2024-03-17T11:31:34;5.28;;;2.70;;
13356;SDS011;6747;56.456;-3.120;2024-03-17T11:34:02;6.32;;;3.40;;
13356;SDS011;6747;56.456;-3.120;2024-03-17T11:36:33;4.30;;;3.10;;
13356;SDS011;6747;56.456;-3.120;2024-03-17T11:39:02;4.97;;;3.40;;
13356;SDS011;6747;56.456;-3.120;2024-03-17T11:41:34;2.90;;;2.70;;
13356;SDS011;6747;56.456;-3.120;2024-03-17T11:44:15;4.75;;;3.30;;
13356;SDS011;6747;56.456;-3.120;2024-03-17T11:46:46;4.15;;;3.47;;
13356;SDS011;6747;56.456;-3.120;2024-03-17T11:49:17;4.63;;;3.35;;
13356;SDS011;6747;56.456;-3.120;2024-03-17T11:51:45;3.65;;;3.13;;
13356;SDS011;6747;56.456;-3.120;2024-03-17T11:54:13;6.03;;;3.78;;
13356;SDS011;6747;56.456;-3.120;2024-03-17T11:56:45;5.50;;;3.90;;
13356;SDS011;6747;56.456;-3.120;2024-03-17T11:59:11;4.47;;;3.65;;
13356;SDS011;6747;56.456;-3.120;2024-03-17T12:01:45;4.95;;;3.65;;
13356;SDS011;6747;56.456;-3.120;2024-03-17T12:04:13;4.35;;;3.60;;
13356;SDS011;6747;56.456;-3.120;2024-03-17T12:06:46;3.50;;;3.20;;
13356;SDS011;6747;56.456;-3.120;2024-03-17T12:09:18;4.07;;;3.00;;
13356;SDS011;6747;56.456;-3.120;2024-03-17T12:11:48;3.35;;;3.10;;
13356;SDS011;6747;56.456;-3.120;2024-03-17T12:14:17;3.10;;;2.90;;
13356;SDS011;6747;56.456;-3.120;2024-03-17T12:16:51;2.95;;;2.65;;
13356;SDS011;6747;56.456;-3.120;2024-03-17T12:19:17;4.82;;;3.30;;
13356;SDS011;6747;56.456;-3.120;2024-03-17T12:21:46;6.20;;;4.13;;
13356;SDS011;6747;56.456;-3.120;2024-03-17T12:24:14;3.85;;;3.40;;
13356;SDS011;6747;56.456;-3.120;2024-03-17T12:26:42;3.90;;;3.58;;
13356;SDS011;6747;56.456;-3.120;2024-03-17T12:29:25;3.92;;;3.28;;
13356;SDS011;6747;56.456;-3.120;2024-03-17T12:31:59;4.90;;;3.22;;
13356;SDS011;6747;56.456;-3.120;2024-03-17T12:34:27;5.95;;;3.35;;
13356;SDS011;6747;56.456;-3.120;2024-03-17T12:36:59;4.72;;;3.38;;
13356;SDS011;6747;56.456;-3.120;2024-03-17T12:39:27;4.75;;;3.80;;
13356;SDS011;6747;56.456;-3.120;2024-03-17T12:42:01;7.43;;;4.45;;
13356;SDS011;6747;56.456;-3.120;2024-03-17T12:44:28;6.32;;;4.40;;
13356;SDS011;6747;56.456;-3.120;2024-03-17T12:47:01;6.93;;;4.50;;
13356;SDS011;6747;56.456;-3.120;2024-03-17T12:49:29;7.25;;;4.40;;
13356;SDS011;6747;56.456;-3.120;2024-03-17T12:51:57;6.18;;;3.83;;
13356;SDS011;6747;56.456;-3.120;2024-03-17T12:54:26;9.63;;;4.47;;
13356;SDS011;6747;56.456;-3.120;2024-03-17T12:57:03;8.63;;;4.28;;
13356;SDS011;6747;56.456;-3.120;2024-03-17T12:59:48;5.70;;;3.60;;
13356;SDS011;6747;56.456;-3.120;2024-03-17T13:02:44;7.35;;;3.78;;
13356;SDS011;6747;56.456;-3.120;2024-03-17T13:05:16;5.18;;;3.00;;
13356;SDS011;6747;56.456;-3.120;2024-03-17T13:07:44;6.10;;;3.10;;
13356;SDS011;6747;56.456;-3.120;2024-03-17T13:10:13;4.88;;;2.97;;
13356;SDS011;6747;56.456;-3.120;2024-03-17T13:12:41;3.22;;;2.60;;
13356;SDS011;6747;56.456;-3.120;2024-03-17T13:15:09;4.80;;;2.72;;
13356;SDS011;6747;56.456;-3.120;2024-03-17T13:17:38;7.63;;;2.65;;
13356;SDS011;6747;56.456;-3.120;2024-03-17T13:20:08;6.20;;;2.40;;
13356;SDS011;6747;56.456;-3.120;2024-03-17T13:22:38;2.58;;;1.95;;
13356;SDS011;6747;56.456;-3.120;2024-03-17T13:25:12;3.67;;;2.28;;
13356;SDS011;6747;56.456;-3.120;2024-03-17T13:27:41;4.03;;;2.30;;
13356;SDS011;6747;56.456;-3.120;2024-03-17T13:30:10;6.45;;;2.10;;
13356;SDS011;6747;56.456;-3.120;2024-03-17T13:32:38;3.80;;;2.08;;
13356;SDS011;6747;56.456;-3.120;2024-03-17T13:35:14;2.47;;;1.80;;
13356;SDS011;6747;56.456;-3.120;2024-03-17T13:37:41;3.70;;;2.00;;
13356;SDS011;6747;56.456;-3.120;2024-03-17T13:40:09;5.38;;;2.03;;
13356;SDS011;6747;56.456;-3.120;2024-03-17T13:42:38;5.13;;;2.13;;
13356;SDS011;6747;56.456;-3.120;2024-03-17T13:45:06;4.22;;;2.08;;
13356;SDS011;6747;56.456;-3.120;2024-03-17T13:47:37;6.32;;;2.17;;
13356;SDS011;6747;56.456;-3.120;2024-03-17T13:50:05;3.22;;;2.00;;
13356;SDS011;6747;56.456;-3.120;2024-03-17T13:52:37;2.80;;;1.73;;
13356;SDS011;6747;56.456;-3.120;2024-03-17T13:55:05;3.15;;;1.80;;
13356;SDS011;6747;56.456;-3.120;2024-03-17T13:57:33;5.07;;;1.75;;
13356;SDS011;6747;56.456;-3.120;2024-03-17T14:00:01;2.40;;;1.63;;
13356;SDS011;6747;56.456;-3.120;2024-03-17T14:02:29;3.50;;;1.35;;
13356;SDS011;6747;56.456;-3.120;2024-03-17T14:04:57;2.47;;;1.83;;
13356;SDS011;6747;56.456;-3.120;2024-03-17T14:07:25;3.17;;;1.60;;
13356;SDS011;6747;56.456;-3.120;2024-03-17T14:09:55;2.53;;;1.80;;
13356;SDS011;6747;56.456;-3.120;2024-03-17T14:12:23;5.55;;;1.80;;
13356;SDS011;6747;56.456;-3.120;2024-03-17T14:14:51;3.28;;;1.70;;
13356;SDS011;6747;56.456;-3.120;2024-03-17T14:17:20;2.40;;;1.80;;
13356;SDS011;6747;56.456;-3.120;2024-03-17T14:19:47;4.32;;;1.70;;
13356;SDS011;6747;56.456;-3.120;2024-03-17T14:22:15;4.20;;;1.75;;
13356;SDS011;6747;56.456;-3.120;2024-03-17T14:24:43;2.17;;;1.13;;
13356;SDS011;6747;56.456;-3.120;2024-03-17T14:27:12;3.72;;;1.83;;
13356;SDS011;6747;56.456;-3.120;2024-03-17T14:29:41;4.25;;;1.65;;
13356;SDS011;6747;56.456;-3.120;2024-03-17T14:32:08;2.47;;;1.20;;
13356;SDS011;6747;56.456;-3.120;2024-03-17T14:34:37;2.72;;;1.35;;
13356;SDS011;6747;56.456;-3.120;2024-03-17T14:37:04;2.05;;;1.42;;
13356;SDS011;6747;56.456;-3.120;2024-03-17T14:39:32;1.98;;;1.50;;
13356;SDS011;6747;56.456;-3.120;2024-03-17T14:42:00;3.20;;;1.23;;
13356;SDS011;6747;56.456;-3.120;2024-03-17T14:44:29;2.38;;;1.20;;
13356;SDS011;6747;56.456;-3.120;2024-03-17T14:46:59;4.55;;;1.30;;
13356;SDS011;6747;56.456;-3.120;2024-03-17T14:49:30;1.60;;;1.40;;
13356;SDS011;6747;56.456;-3.120;2024-03-17T14:51:59;4.43;;;1.80;;
13356;SDS011;6747;56.456;-3.120;2024-03-17T14:54:31;7.03;;;1.67;;
13356;SDS011;6747;56.456;-3.120;2024-03-17T14:57:01;1.48;;;1.38;;
13356;SDS011;6747;56.456;-3.120;2024-03-17T14:59:40;4.22;;;2.28;;
13356;SDS011;6747;56.456;-3.120;2024-03-17T15:02:09;3.05;;;1.58;;
13356;SDS011;6747;56.456;-3.120;2024-03-17T15:04:37;2.08;;;1.42;;
13356;SDS011;6747;56.456;-3.120;2024-03-17T15:07:05;4.80;;;1.52;;
13356;SDS011;6747;56.456;-3.120;2024-03-17T15:09:38;1.98;;;1.40;;
13356;SDS011;6747;56.456;-3.120;2024-03-17T15:12:06;2.42;;;1.60;;
13356;SDS011;6747;56.456;-3.120;2024-03-17T15:14:36;2.65;;;1.90;;
13356;SDS011;6747;56.456;-3.120;2024-03-17T15:17:06;3.15;;;2.05;;
13356;SDS011;6747;56.456;-3.120;2024-03-17T15:19:37;1.77;;;1.67;;
13356;SDS011;6747;56.456;-3.120;2024-03-17T15:22:08;1.90;;;1.60;;
13356;SDS011;6747;56.456;-3.120;2024-03-17T15:24:36;3.17;;;1.67;;
13356;SDS011;6747;56.456;-3.120;2024-03-17T15:27:05;2.53;;;1.65;;
13356;SDS011;6747;56.456;-3.120;2024-03-17T15:29:35;3.42;;;1.75;;
13356;SDS011;6747;56.456;-3.120;2024-03-17T15:32:05;4.05;;;1.63;;
13356;SDS011;6747;56.456;-3.120;2024-03-17T15:34:36;2.03;;;1.70;;
13356;SDS011;6747;56.456;-3.120;2024-03-17T15:37:04;2.15;;;1.42;;
13356;SDS011;6747;56.456;-3.120;2024-03-17T15:39:37;1.73;;;1.50;;
13356;SDS011;6747;56.456;-3.120;2024-03-17T15:42:19;4.40;;;1.58;;
13356;SDS011;6747;56.456;-3.120;2024-03-17T15:44:48;2.50;;;2.28;;
13356;SDS011;6747;56.456;-3.120;2024-03-17T15:47:29;2.35;;;1.40;;
13356;SDS011;6747;56.456;-3.120;2024-03-17T15:49:58;3.97;;;1.92;;
13356;SDS011;6747;56.456;-3.120;2024-03-17T15:52:27;2.63;;;2.13;;
13356;SDS011;6747;56.456;-3.120;2024-03-17T15:55:01;11.20;;;6.18;;
13356;SDS011;6747;56.456;-3.120;2024-03-17T15:57:31;11.50;;;5.90;;
13356;SDS011;6747;56.456;-3.120;2024-03-17T16:00:02;10.45;;;5.32;;
13356;SDS011;6747;56.456;-3.120;2024-03-17T16:02:35;9.25;;;5.38;;
13356;SDS011;6747;56.456;-3.120;2024-03-17T16:05:06;8.68;;;5.47;;
13356;SDS011;6747;56.456;-3.120;2024-03-17T16:07:37;9.05;;;5.65;;
13356;SDS011;6747;56.456;-3.120;2024-03-17T16:10:09;7.43;;;4.88;;
13356;SDS011;6747;56.456;-3.120;2024-03-17T16:12:44;4.97;;;4.50;;
13356;SDS011;6747;56.456;-3.120;2024-03-17T16:15:14;6.95;;;4.40;;
13356;SDS011;6747;56.456;-3.120;2024-03-17T16:17:45;7.60;;;4.22;;
13356;SDS011;6747;56.456;-3.120;2024-03-17T16:20:18;5.20;;;4.70;;
13356;SDS011;6747;56.456;-3.120;2024-03-17T16:22:54;5.97;;;3.90;;
13356;SDS011;6747;56.456;-3.120;2024-03-17T16:25:24;5.63;;;4.22;;
13356;SDS011;6747;56.456;-3.120;2024-03-17T16:27:53;6.18;;;4.22;;
13356;SDS011;6747;56.456;-3.120;2024-03-17T16:30:24;5.32;;;4.40;;
13356;SDS011;6747;56.456;-3.120;2024-03-17T16:32:55;5.68;;;4.28;;
13356;SDS011;6747;56.456;-3.120;2024-03-17T16:35:24;6.90;;;4.95;;
13356;SDS011;6747;56.456;-3.120;2024-03-17T16:37:55;7.55;;;5.30;;
13356;SDS011;6747;56.456;-3.120;2024-03-17T16:40:28;7.20;;;4.78;;
13356;SDS011;6747;56.456;-3.120;2024-03-17T16:42:56;8.35;;;5.28;;
13356;SDS011;6747;56.456;-3.120;2024-03-17T16:45:26;8.88;;;6.00;;
13356;SDS011;6747;56.456;-3.120;2024-03-17T16:47:57;8.50;;;5.88;;
13356;SDS011;6747;56.456;-3.120;2024-03-17T16:50:26;10.50;;;6.22;;
13356;SDS011;6747;56.456;-3.120;2024-03-17T16:53:03;8.55;;;4.90;;
13356;SDS011;6747;56.456;-3.120;2024-03-17T16:55:33;10.88;;;5.50;;
13356;SDS011;6747;56.456;-3.120;2024-03-17T16:58:03;4.93;;;4.40;;
13356;SDS011;6747;56.456;-3.120;2024-03-17T17:00:31;7.53;;;4.07;;
13356;SDS011;6747;56.456;-3.120;2024-03-17T17:03:04;3.75;;;2.75;;
13356;SDS011;6747;56.456;-3.120;2024-03-17T17:05:34;3.83;;;2.28;;
13356;SDS011;6747;56.456;-3.120;2024-03-17T17:08:05;2.70;;;1.95;;
13356;SDS011;6747;56.456;-3.120;2024-03-17T17:10:34;2.47;;;1.95;;
13356;SDS011;6747;56.456;-3.120;2024-03-17T17:13:03;2.03;;;1.92;;
13356;SDS011;6747;56.456;-3.120;2024-03-17T17:15:34;3.35;;;2.20;;
13356;SDS011;6747;56.456;-3.120;2024-03-17T17:18:05;2.28;;;2.08;;
13356;SDS011;6747;56.456;-3.120;2024-03-17T17:20:37;2.88;;;2.05;;
13356;SDS011;6747;56.456;-3.120;2024-03-17T17:23:06;1.80;;;1.60;;
13356;SDS011;6747;56.456;-3.120;2024-03-17T17:25:41;1.63;;;1.17;;
13356;SDS011;6747;56.456;-3.120;2024-03-17T17:28:10;1.75;;;1.13;;
13356;SDS011;6747;56.456;-3.120;2024-03-17T17:30:43;2.80;;;1.38;;
13356;SDS011;6747;56.456;-3.120;2024-03-17T17:33:19;2.60;;;1.63;;
13356;SDS011;6747;56.456;-3.120;2024-03-17T17:35:48;1.77;;;1.55;;
13356;SDS011;6747;56.456;-3.120;2024-03-17T17:38:17;3.05;;;1.60;;
13356;SDS011;6747;56.456;-3.120;2024-03-17T17:40:48;1.92;;;1.60;;
13356;SDS011;6747;56.456;-3.120;2024-03-17T17:43:18;1.90;;;1.80;;
13356;SDS011;6747;56.456;-3.120;2024-03-17T17:45:49;2.80;;;2.58;;
13356;SDS011;6747;56.456;-3.120;2024-03-17T17:48:21;4.88;;;4.47;;
13356;SDS011;6747;56.456;-3.120;2024-03-17T17:50:53;4.78;;;3.80;;
13356;SDS011;6747;56.456;-3.120;2024-03-17T17:53:21;3.63;;;3.25;;
13356;SDS011;6747;56.456;-3.120;2024-03-17T17:55:56;6.05;;;3.90;;
13356;SDS011;6747;56.456;-3.120;2024-03-17T17:58:25;5.60;;;4.47;;
13356;SDS011;6747;56.456;-3.120;2024-03-17T18:00:57;7.05;;;3.72;;
13356;SDS011;6747;56.456;-3.120;2024-03-17T18:03:28;5.30;;;4.35;;
13356;SDS011;6747;56.456;-3.120;2024-03-17T18:05:58;6.30;;;4.68;;
13356;SDS011;6747;56.456;-3.120;2024-03-17T18:08:29;5.50;;;4.53;;
13356;SDS011;6747;56.456;-3.120;2024-03-17T18:10:59;7.63;;;5.50;;
13356;SDS011;6747;56.456;-3.120;2024-03-17T18:13:29;6.30;;;5.70;;
13356;SDS011;6747;56.456;-3.120;2024-03-17T18:16:01;7.20;;;6.45;;
13356;SDS011;6747;56.456;-3.120;2024-03-17T18:18:32;9.55;;;7.05;;
13356;SDS011;6747;56.456;-3.120;2024-03-17T18:21:02;10.60;;;7.72;;
13356;SDS011;6747;56.456;-3.120;2024-03-17T18:23:32;13.68;;;9.07;;
13356;SDS011;6747;56.456;-3.120;2024-03-17T18:26:04;13.60;;;8.82;;
13356;SDS011;6747;56.456;-3.120;2024-03-17T18:28:46;13.40;;;9.05;;
13356;SDS011;6747;56.456;-3.120;2024-03-17T18:31:14;14.60;;;9.77;;
13356;SDS011;6747;56.456;-3.120;2024-03-17T18:33:44;12.93;;;8.90;;
13356;SDS011;6747;56.456;-3.120;2024-03-17T18:36:12;18.10;;;11.27;;
13356;SDS011;6747;56.456;-3.120;2024-03-17T18:38:40;46.78;;;29.70;;
13356;SDS011;6747;56.456;-3.120;2024-03-17T18:41:09;27.67;;;19.88;;
13356;SDS011;6747;56.456;-3.120;2024-03-17T18:43:36;20.52;;;13.63;;
13356;SDS011;6747;56.456;-3.120;2024-03-17T18:46:12;11.93;;;9.65;;
13356;SDS011;6747;56.456;-3.120;2024-03-17T18:48:40;11.43;;;8.80;;
13356;SDS011;6747;56.456;-3.120;2024-03-17T18:51:17;13.02;;;8.90;;
13356;SDS011;6747;56.456;-3.120;2024-03-17T18:54:10;13.60;;;7.15;;
13356;SDS011;6747;56.456;-3.120;2024-03-17T18:56:53;7.93;;;6.40;;
13356;SDS011;6747;56.456;-3.120;2024-03-17T18:59:30;6.97;;;4.70;;
13356;SDS011;6747;56.456;-3.120;2024-03-17T19:02:21;6.43;;;5.00;;
13356;SDS011;6747;56.456;-3.120;2024-03-17T19:05:03;5.13;;;4.63;;
13356;SDS011;6747;56.456;-3.120;2024-03-17T19:07:37;5.85;;;4.85;;
13356;SDS011;6747;56.456;-3.120;2024-03-17T19:10:05;6.43;;;4.93;;